Time;durP1;ratioP1;P1;durP2;ratioP2;P2;SDS_P1;SDS_P2;PMS_P1;PMS_P2;Temp;Humidity;BMP_temperature;BMP_pressure;BME280_temperature;BME280_humidity;BME280_pressure;Samples;Min_cycle;Max_cycle;Signal;HPM_P1;HPM_P2
2023/03/15 00:00:24;;;;;;;;;;;;;;;;;;1033760;28;19936;-26
2023/03/15 00:00:55;;;;;;;;;;;;;;;;;;1034141;28;19913;-25
2023/03/15 00:01:26;;;;;;;;;;;;;;;;;;1033095;28;19967;-25
2023/03/15 00:01:56;;;;;;;;;;;;;;;;;;1034124;28;20292;-25
2023/03/15 00:02:26;;;;;;;;;;;;;;;;;;1034064;28;19909;-26
2023/03/15 00:02:56;;;;;;;;;;;;;;;;;;1034187;28;19931;-26
2023/03/15 00:03:27;;;;;;;;;;;;;;;;;;1032906;28;19909;-26
2023/03/15 00:03:57;;;;;;;;;;;;;;;;;;1034884;28;20012;-25
2023/03/15 00:04:27;;;;;;;;;;;;;;;;;;1033936;28;20004;-25
2023/03/15 00:04:57;;;;;;;;;;;;;;;;;;1034265;28;19963;-25
2023/03/15 00:05:27;;;;;;;;;;;;;;;;;;1033868;28;20351;-25
2023/03/15 00:05:58;;;;;;;;;;;;;;;;;;1034305;28;20383;-25
2023/03/15 00:06:28;;;;;;;;;;;;;;;;;;1033984;28;19931;-25
2023/03/15 00:06:58;;;;;;;;;;;;;;;;;;1033332;28;19960;-25
2023/03/15 00:07:28;;;;;;;;;;;;;;;;;;1033847;28;19916;-26
2023/03/15 00:07:59;;;;;;;;;;;;;;;;;;1033926;28;19971;-25
2023/03/15 00:08:32;;;;;;;;;;;;;;;;;;1034169;28;19916;-25
2023/03/15 00:09:02;;;;;;;;;;;;;;;;;;1034221;28;19956;-25
2023/03/15 00:09:32;;;;;;;;;;;;;;;;;;1033861;28;21152;-25
2023/03/15 00:10:03;;;;;;;;;;;;;;;;;;1034230;28;20484;-26
2023/03/15 00:10:33;;;;;;;;;;;;;;;;;;1034478;28;19913;-25
2023/03/15 00:11:03;;;;;;;;;;;;;;;;;;1034272;28;19910;-25
2023/03/15 00:11:33;;;;;;;;;;;;;;;;;;1033683;28;19910;-25
2023/03/15 00:12:04;;;;;;;;;;;;;;;;;;1034295;28;19910;-24
2023/03/15 00:12:34;;;;;;;;;;;;;;;;;;1033819;28;19909;-26
2023/03/15 00:13:04;;;;;;;;;;;;;;;;;;1034111;28;20377;-26
2023/03/15 00:13:34;;;;;;;;;;;;;;;;;;1033869;28;19949;-26
2023/03/15 00:14:05;;;;;;;;;;;;;;;;;;1033488;28;19956;-25
2023/03/15 00:14:35;;;;;;;;;;;;;;;;;;1034003;28;19909;-25
2023/03/15 00:15:05;;;;;;;;;;;;;;;;;;1034266;28;20368;-25
2023/03/15 00:15:35;;;;;;;;;;;;;;;;;;1033533;28;19909;-26
2023/03/15 00:16:06;;;;;;;;;;;;;;;;;;1034142;28;19959;-25
2023/03/15 00:16:36;;;;;;;;;;;;;;;;;;1033830;28;19945;-25
2023/03/15 00:17:06;;;;;;;;;;;;;;;;;;1034283;28;19953;-25
2023/03/15 00:17:36;;;;;;;;;;;;;;;;;;1033601;28;19910;-25
2023/03/15 00:18:06;;;;;;;;;;;;;;;;;;1033893;28;19910;-26
2023/03/15 00:18:37;;;;;;;;;;;;;;;;;;1033934;28;19963;-26
2023/03/15 00:19:07;;;;;;;;;;;;;;;;;;1034382;28;19910;-26
2023/03/15 00:19:37;;;;;;;;;;;;;;;;;;1033705;28;19913;-25
2023/03/15 00:20:07;;;;;;;;;;;;;;;;;;1034163;28;19910;-26
2023/03/15 00:20:38;;;;;;;;;;;;;;;;;;1033918;28;19913;-25
2023/03/15 00:21:08;;;;;;;;;;;;;;;;;;1034183;28;19910;-26
2023/03/15 00:21:39;;;;;;;;;;;;;;;;;;1033790;28;19910;-26
2023/03/15 00:22:09;;;;;;;;;;;;;;;;;;1034998;28;19948;-25
2023/03/15 00:22:39;;;;;;;;;;;;;;;;;;1034015;28;19910;-25
2023/03/15 00:23:10;;;;;;;;;;;;;;;;;;1034180;28;19914;-26
2023/03/15 00:23:40;;;;;;;;;;;;;;;;;;1033648;28;19913;-26
2023/03/15 00:24:10;;;;;;;;;;;;;;;;;;1034364;28;20008;-25
2023/03/15 00:24:40;;;;;;;;;;;;;;;;;;1033859;28;19916;-25
2023/03/15 00:25:10;;;;;;;;;;;;;;;;;;1034149;28;19910;-25
2023/03/15 00:25:41;;;;;;;;;;;;;;;;;;1034035;28;19925;-26
2023/03/15 00:26:11;;;;;;;;;;;;;;;;;;1034487;28;19921;-25
2023/03/15 00:26:41;;;;;;;;;;;;;;;;;;1033566;28;20384;-26
2023/03/15 00:27:11;;;;;;;;;;;;;;;;;;1033618;28;19936;-25
2023/03/15 00:27:42;;;;;;;;;;;;;;;;;;1033621;28;19909;-25
2023/03/15 00:28:12;;;;;;;;;;;;;;;;;;1034195;28;19913;-25
2023/03/15 00:28:42;;;;;;;;;;;;;;;;;;1033990;28;19916;-25
2023/03/15 00:29:12;;;;;;;;;;;;;;;;;;1033487;28;19914;-26
2023/03/15 00:29:43;;;;;;;;;;;;;;;;;;1033624;28;19909;-26
2023/03/15 00:30:13;;;;;;;;;;;;;;;;;;1034090;28;19916;-26
2023/03/15 00:30:43;;;;;;;;;;;;;;;;;;1033849;28;19910;-26
2023/03/15 00:31:13;;;;;;;;;;;;;;;;;;1034332;28;19909;-25
2023/03/15 00:31:43;;;;;;;;;;;;;;;;;;1033551;28;19948;-26
2023/03/15 00:32:14;;;;;;;;;;;;;;;;;;1034004;28;20017;-26
2023/03/15 00:32:44;;;;;;;;;;;;;;;;;;1033881;28;19909;-25
2023/03/15 00:33:14;;;;;;;;;;;;;;;;;;1034195;28;20357;-25
2023/03/15 00:33:44;;;;;;;;;;;;;;;;;;1033445;28;20009;-26
2023/03/15 00:34:15;;;;;;;;;;;;;;;;;;1034200;28;19936;-25
2023/03/15 00:34:47;;;;;;;;;;;;;;;;;;1033926;28;19913;-26
2023/03/15 00:35:18;;;;;;;;;;;;;;;;;;1033934;28;20257;-25
2023/03/15 00:35:48;;;;;;;;;;;;;;;;;;1033503;28;19914;-25
2023/03/15 00:36:18;;;;;;;;;;;;;;;;;;1034410;28;20005;-25
2023/03/15 00:36:48;;;;;;;;;;;;;;;;;;1033599;28;20100;-24
2023/03/15 00:37:19;;;;;;;;;;;;;;;;;;1034427;28;19959;-25
2023/03/15 00:37:49;;;;;;;;;;;;;;;;;;1033435;28;19910;-24
2023/03/15 00:38:20;;;;;;;;;;;;;;;;;;1034050;28;19975;-25
2023/03/15 00:38:50;;;;;;;;;;;;;;;;;;1033918;28;19909;-25
2023/03/15 00:39:24;;;;;;;;;;;;;;;;;;1034536;28;19932;-25
2023/03/15 00:39:54;;;;;;;;;;;;;;;;;;1034155;28;19999;-26
2023/03/15 00:40:24;;;;;;;;;;;;;;;;;;1034024;28;20304;-25
2023/03/15 00:40:55;;;;;;;;;;;;;;;;;;1034043;28;19910;-24
2023/03/15 00:41:25;;;;;;;;;;;;;;;;;;1033911;28;19909;-25
2023/03/15 00:41:56;;;;;;;;;;;;;;;;;;1033850;28;19909;-25
2023/03/15 00:42:26;;;;;;;;;;;;;;;;;;1033821;28;19914;-26
2023/03/15 00:42:56;;;;;;;;;;;;;;;;;;1034192;28;19960;-26
2023/03/15 00:43:27;;;;;;;;;;;;;;;;;;1033719;28;20448;-25
2023/03/15 00:43:57;;;;;;;;;;;;;;;;;;1033898;28;20399;-26
2023/03/15 00:44:27;;;;;;;;;;;;;;;;;;1034011;28;19910;-25
2023/03/15 00:44:58;;;;;;;;;;;;;;;;;;1033977;28;19952;-26
2023/03/15 00:45:28;;;;;;;;;;;;;;;;;;1033686;28;19910;-26
2023/03/15 00:45:58;;;;;;;;;;;;;;;;;;1034036;28;19917;-26
2023/03/15 00:46:28;;;;;;;;;;;;;;;;;;1033802;28;19916;-25
2023/03/15 00:46:59;;;;;;;;;;;;;;;;;;1033033;28;19910;-25
2023/03/15 00:47:29;;;;;;;;;;;;;;;;;;1033731;28;19913;-25
2023/03/15 00:47:59;;;;;;;;;;;;;;;;;;1033923;28;19945;-25
2023/03/15 00:48:29;;;;;;;;;;;;;;;;;;1033778;28;19909;-25
2023/03/15 00:49:00;;;;;;;;;;;;;;;;;;1034167;28;19914;-24
2023/03/15 00:49:30;;;;;;;;;;;;;;;;;;1033501;28;19914;-25
2023/03/15 00:50:00;;;;;;;;;;;;;;;;;;1033786;28;19913;-26
2023/03/15 00:50:30;;;;;;;;;;;;;;;;;;1032901;28;19920;-25
2023/03/15 00:51:00;;;;;;;;;;;;;;;;;;1034033;28;19920;-26
2023/03/15 00:51:32;;;;;;;;;;;;;;;;;;1033680;28;19909;-25
2023/03/15 00:52:02;;;;;;;;;;;;;;;;;;1035028;28;19909;-26
2023/03/15 00:52:34;;;;;;;;;;;;;;;;;;1033402;28;19914;-26
2023/03/15 00:53:04;;;;;;;;;;;;;;;;;;1033977;28;19957;-26
2023/03/15 00:53:35;;;;;;;;;;;;;;;;;;1033428;28;19910;-26
2023/03/15 00:54:05;;;;;;;;;;;;;;;;;;1033976;28;20377;-25
2023/03/15 00:54:35;;;;;;;;;;;;;;;;;;1033609;28;20355;-25
2023/03/15 00:55:05;;;;;;;;;;;;;;;;;;1034032;28;19910;-25
2023/03/15 00:55:36;;;;;;;;;;;;;;;;;;1032532;28;19917;-25
2023/03/15 00:56:06;;;;;;;;;;;;;;;;;;1034442;28;19909;-26
2023/03/15 00:56:36;;;;;;;;;;;;;;;;;;1033862;28;19947;-26
2023/03/15 00:57:07;;;;;;;;;;;;;;;;;;1033928;28;19909;-25
2023/03/15 00:57:37;;;;;;;;;;;;;;;;;;1033529;28;20028;-25
2023/03/15 00:58:07;;;;;;;;;;;;;;;;;;1034035;28;19909;-25
2023/03/15 00:58:37;;;;;;;;;;;;;;;;;;1033541;28;20365;-25
2023/03/15 00:59:07;;;;;;;;;;;;;;;;;;1033921;28;20399;-25
2023/03/15 00:59:38;;;;;;;;;;;;;;;;;;1033373;28;19910;-25
2023/03/15 01:00:08;;;;;;;;;;;;;;;;;;1033779;28;19913;-25
2023/03/15 01:00:40;;;;;;;;;;;;;;;;;;1033491;28;19914;-25
2023/03/15 01:01:10;;;;;;;;;;;;;;;;;;1034040;28;19909;-26
2023/03/15 01:01:43;;;;;;;;;;;;;;;;;;1033454;28;19914;-25
2023/03/15 01:02:13;;;;;;;;;;;;;;;;;;1034121;28;20383;-25
2023/03/15 01:02:43;;;;;;;;;;;;;;;;;;1033987;28;19909;-26
2023/03/15 01:03:14;;;;;;;;;;;;;;;;;;1034175;28;19910;-25
2023/03/15 01:03:44;;;;;;;;;;;;;;;;;;1033251;28;19910;-26
2023/03/15 01:04:14;;;;;;;;;;;;;;;;;;1034237;28;19939;-25
2023/03/15 01:04:44;;;;;;;;;;;;;;;;;;1033796;28;20300;-25
2023/03/15 01:05:15;;;;;;;;;;;;;;;;;;1031585;28;19909;-25
2023/03/15 01:05:45;;;;;;;;;;;;;;;;;;1030177;28;20351;-25
2023/03/15 01:06:15;;;;;;;;;;;;;;;;;;1031627;28;19914;-25
2023/03/15 01:06:45;;;;;;;;;;;;;;;;;;1031164;28;19941;-25
2023/03/15 01:07:15;;;;;;;;;;;;;;;;;;1035419;28;20052;-25
2023/03/15 01:07:46;;;;;;;;;;;;;;;;;;1033262;28;19917;-25
2023/03/15 01:08:16;;;;;;;;;;;;;;;;;;1033333;28;19909;-25
2023/03/15 01:08:46;;;;;;;;;;;;;;;;;;1033611;28;20015;-25
2023/03/15 01:09:16;;;;;;;;;;;;;;;;;;1033371;28;20391;-25
2023/03/15 01:09:47;;;;;;;;;;;;;;;;;;1033432;28;20397;-25
2023/03/15 01:10:17;;;;;;;;;;;;;;;;;;1033958;28;21152;-25
2023/03/15 01:10:47;;;;;;;;;;;;;;;;;;1033744;28;19914;-25
2023/03/15 01:11:18;;;;;;;;;;;;;;;;;;1034086;28;19918;-25
2023/03/15 01:11:48;;;;;;;;;;;;;;;;;;1033516;28;20341;-25
2023/03/15 01:12:18;;;;;;;;;;;;;;;;;;1033935;28;19937;-25
2023/03/15 01:12:48;;;;;;;;;;;;;;;;;;1034345;28;20016;-26
2023/03/15 01:13:19;;;;;;;;;;;;;;;;;;1034556;28;20432;-26
2023/03/15 01:13:49;;;;;;;;;;;;;;;;;;1033509;28;20381;-25
2023/03/15 01:14:19;;;;;;;;;;;;;;;;;;1034631;28;19967;-27
2023/03/15 01:14:49;;;;;;;;;;;;;;;;;;1034435;28;20295;-27
2023/03/15 01:15:20;;;;;;;;;;;;;;;;;;1034841;28;19914;-27
2023/03/15 01:15:50;;;;;;;;;;;;;;;;;;1034232;28;19945;-26
2023/03/15 01:16:20;;;;;;;;;;;;;;;;;;1034637;28;20424;-26
2023/03/15 01:16:50;;;;;;;;;;;;;;;;;;1034608;28;21479;-26
2023/03/15 01:17:21;;;;;;;;;;;;;;;;;;1034853;28;19909;-27
2023/03/15 01:17:51;;;;;;;;;;;;;;;;;;1033350;28;20369;-27
2023/03/15 01:18:21;;;;;;;;;;;;;;;;;;1035809;28;19909;-26
2023/03/15 01:18:52;;;;;;;;;;;;;;;;;;1035571;28;19909;-26
2023/03/15 01:19:22;;;;;;;;;;;;;;;;;;1030453;28;20397;-27
2023/03/15 01:19:52;;;;;;;;;;;;;;;;;;1031598;28;19961;-26
2023/03/15 01:20:22;;;;;;;;;;;;;;;;;;1030526;28;19909;-27
2023/03/15 01:20:53;;;;;;;;;;;;;;;;;;1032853;28;19913;-26
2023/03/15 01:21:23;;;;;;;;;;;;;;;;;;1034258;28;19915;-26
2023/03/15 01:21:53;;;;;;;;;;;;;;;;;;1034827;28;19948;-26
2023/03/15 01:22:23;;;;;;;;;;;;;;;;;;1034040;28;19909;-26
2023/03/15 01:22:54;;;;;;;;;;;;;;;;;;1034504;28;19914;-26
2023/03/15 01:23:24;;;;;;;;;;;;;;;;;;1034505;28;19909;-26
2023/03/15 01:23:54;;;;;;;;;;;;;;;;;;1033386;28;19914;-26
2023/03/15 01:24:24;;;;;;;;;;;;;;;;;;1034198;28;20274;-26
2023/03/15 01:24:55;;;;;;;;;;;;;;;;;;1035563;28;19910;-26
2023/03/15 01:25:25;;;;;;;;;;;;;;;;;;1034512;28;19917;-26
2023/03/15 01:25:55;;;;;;;;;;;;;;;;;;1035104;28;19918;-26
2023/03/15 01:26:26;;;;;;;;;;;;;;;;;;1035083;28;19921;-27
2023/03/15 01:26:56;;;;;;;;;;;;;;;;;;1035670;28;19913;-27
2023/03/15 01:27:26;;;;;;;;;;;;;;;;;;1034599;28;20326;-26
2023/03/15 01:27:56;;;;;;;;;;;;;;;;;;1034362;28;20377;-26
2023/03/15 01:28:27;;;;;;;;;;;;;;;;;;1034677;28;20238;-26
2023/03/15 01:28:57;;;;;;;;;;;;;;;;;;1035462;28;19924;-26
2023/03/15 01:29:28;;;;;;;;;;;;;;;;;;1035283;28;19909;-27
2023/03/15 01:30:00;;;;;;;;;;;;;;;;;;1034708;28;19916;-27
2023/03/15 01:30:31;;;;;;;;;;;;;;;;;;1034486;28;19910;-26
2023/03/15 01:31:01;;;;;;;;;;;;;;;;;;1034852;28;20011;-26
2023/03/15 01:31:32;;;;;;;;;;;;;;;;;;1034450;28;20431;-26
2023/03/15 01:32:02;;;;;;;;;;;;;;;;;;1034215;28;19917;-27
2023/03/15 01:32:33;;;;;;;;;;;;;;;;;;1030873;28;19976;-27
2023/03/15 01:33:05;;;;;;;;;;;;;;;;;;1031873;28;19910;-27
2023/03/15 01:33:36;;;;;;;;;;;;;;;;;;1031621;28;20412;-27
2023/03/15 01:34:07;;;;;;;;;;;;;;;;;;1032427;28;19913;-26
2023/03/15 01:34:38;;;;;;;;;;;;;;;;;;1031043;28;19910;-26
2023/03/15 01:35:08;;;;;;;;;;;;;;;;;;1032104;28;19937;-26
2023/03/15 01:35:38;;;;;;;;;;;;;;;;;;1031803;28;19910;-27
2023/03/15 01:36:09;;;;;;;;;;;;;;;;;;1029999;28;20007;-27
2023/03/15 01:36:41;;;;;;;;;;;;;;;;;;1031977;28;20305;-26
2023/03/15 01:37:13;;;;;;;;;;;;;;;;;;1031549;28;19945;-27
2023/03/15 01:37:43;;;;;;;;;;;;;;;;;;1031740;28;19957;-26
2023/03/15 01:38:13;;;;;;;;;;;;;;;;;;1032142;28;20308;-26
2023/03/15 01:38:44;;;;;;;;;;;;;;;;;;1031612;28;19909;-27
2023/03/15 01:39:14;;;;;;;;;;;;;;;;;;1032007;28;20008;-27
2023/03/15 01:39:44;;;;;;;;;;;;;;;;;;1030715;28;19910;-26
2023/03/15 01:40:14;;;;;;;;;;;;;;;;;;1031607;28;19957;-26
2023/03/15 01:40:45;;;;;;;;;;;;;;;;;;1032924;28;19918;-27
2023/03/15 01:41:16;;;;;;;;;;;;;;;;;;1032734;28;20004;-27
2023/03/15 01:41:46;;;;;;;;;;;;;;;;;;1034173;28;19937;-26
2023/03/15 01:42:16;;;;;;;;;;;;;;;;;;1033969;28;20365;-27
2023/03/15 01:42:47;;;;;;;;;;;;;;;;;;1034858;28;19941;-27
2023/03/15 01:43:17;;;;;;;;;;;;;;;;;;1034045;28;20007;-26
2023/03/15 01:43:48;;;;;;;;;;;;;;;;;;1035220;28;20656;-27
2023/03/15 01:44:19;;;;;;;;;;;;;;;;;;1031861;28;19916;-26
2023/03/15 01:44:50;;;;;;;;;;;;;;;;;;1031529;28;20025;-27
2023/03/15 01:45:20;;;;;;;;;;;;;;;;;;1031269;28;19939;-26
2023/03/15 01:45:50;;;;;;;;;;;;;;;;;;1031122;28;19920;-27
2023/03/15 01:46:23;;;;;;;;;;;;;;;;;;1030924;28;19917;-26
2023/03/15 01:46:53;;;;;;;;;;;;;;;;;;1031515;28;20424;-26
2023/03/15 01:47:27;;;;;;;;;;;;;;;;;;1031972;28;19976;-26
2023/03/15 01:47:57;;;;;;;;;;;;;;;;;;1032555;28;19929;-26
2023/03/15 01:48:28;;;;;;;;;;;;;;;;;;1033799;28;19944;-26
2023/03/15 01:48:58;;;;;;;;;;;;;;;;;;1034463;28;20369;-26
2023/03/15 01:49:28;;;;;;;;;;;;;;;;;;1033688;28;20004;-26
2023/03/15 01:49:59;;;;;;;;;;;;;;;;;;1034949;28;19914;-26
2023/03/15 01:50:29;;;;;;;;;;;;;;;;;;1030618;28;19914;-26
2023/03/15 01:51:00;;;;;;;;;;;;;;;;;;1033896;28;19918;-27
2023/03/15 01:51:30;;;;;;;;;;;;;;;;;;1033840;28;19914;-26
2023/03/15 01:52:00;;;;;;;;;;;;;;;;;;1034068;28;20621;-26
2023/03/15 01:52:31;;;;;;;;;;;;;;;;;;1032846;28;19996;-27
2023/03/15 01:53:02;;;;;;;;;;;;;;;;;;1033707;28;20292;-27
2023/03/15 01:53:32;;;;;;;;;;;;;;;;;;1034583;28;19909;-26
2023/03/15 01:54:02;;;;;;;;;;;;;;;;;;1031309;28;20028;-27
2023/03/15 01:54:33;;;;;;;;;;;;;;;;;;1030624;28;19916;-26
2023/03/15 01:55:04;;;;;;;;;;;;;;;;;;1031613;28;19964;-27
2023/03/15 01:55:34;;;;;;;;;;;;;;;;;;1028841;28;20024;-27
2023/03/15 01:56:04;;;;;;;;;;;;;;;;;;1030903;28;19910;-27
2023/03/15 01:56:34;;;;;;;;;;;;;;;;;;1029764;28;19909;-27
2023/03/15 01:57:05;;;;;;;;;;;;;;;;;;1033217;28;19909;-26
2023/03/15 01:57:35;;;;;;;;;;;;;;;;;;1033808;28;19916;-28
2023/03/15 01:58:05;;;;;;;;;;;;;;;;;;1033020;28;19909;-26
2023/03/15 01:58:36;;;;;;;;;;;;;;;;;;1033839;28;19920;-27
2023/03/15 01:59:06;;;;;;;;;;;;;;;;;;1033905;28;20431;-26
2023/03/15 01:59:36;;;;;;;;;;;;;;;;;;1033365;28;20334;-27
2023/03/15 02:00:10;;;;;;;;;;;;;;;;;;1034298;28;19914;-26
2023/03/15 02:00:40;;;;;;;;;;;;;;;;;;1032390;28;19914;-26
2023/03/15 02:01:10;;;;;;;;;;;;;;;;;;1035145;28;19910;-26
2023/03/15 02:01:44;;;;;;;;;;;;;;;;;;1034333;28;19920;-27
2023/03/15 02:02:15;;;;;;;;;;;;;;;;;;1031203;28;19917;-26
2023/03/15 02:02:45;;;;;;;;;;;;;;;;;;1030029;28;20103;-26
2023/03/15 02:03:16;;;;;;;;;;;;;;;;;;1029084;28;19914;-27
2023/03/15 02:03:46;;;;;;;;;;;;;;;;;;1028186;28;19914;-27
2023/03/15 02:04:17;;;;;;;;;;;;;;;;;;1028838;28;19968;-27
2023/03/15 02:04:47;;;;;;;;;;;;;;;;;;1028635;28;20048;-27
2023/03/15 02:05:18;;;;;;;;;;;;;;;;;;1032858;28;19910;-28
2023/03/15 02:05:48;;;;;;;;;;;;;;;;;;1033916;28;19963;-26
2023/03/15 02:06:18;;;;;;;;;;;;;;;;;;1033021;28;21272;-26
2023/03/15 02:06:49;;;;;;;;;;;;;;;;;;1032996;28;20004;-27
2023/03/15 02:07:19;;;;;;;;;;;;;;;;;;1033592;28;20432;-27
2023/03/15 02:07:49;;;;;;;;;;;;;;;;;;1032957;28;19909;-27
2023/03/15 02:08:20;;;;;;;;;;;;;;;;;;1032109;28;19945;-27
2023/03/15 02:08:50;;;;;;;;;;;;;;;;;;1032479;28;19914;-28
2023/03/15 02:09:20;;;;;;;;;;;;;;;;;;1031372;28;20248;-27
2023/03/15 02:09:51;;;;;;;;;;;;;;;;;;1033185;28;19940;-28
2023/03/15 02:10:21;;;;;;;;;;;;;;;;;;1034378;28;20369;-27
2023/03/15 02:10:51;;;;;;;;;;;;;;;;;;1033913;28;19929;-27
2023/03/15 02:11:22;;;;;;;;;;;;;;;;;;1034749;28;19909;-27
2023/03/15 02:11:52;;;;;;;;;;;;;;;;;;1033445;28;19909;-27
2023/03/15 02:12:22;;;;;;;;;;;;;;;;;;1033357;28;19959;-28
2023/03/15 02:12:53;;;;;;;;;;;;;;;;;;1030396;28;20385;-27
2023/03/15 02:13:23;;;;;;;;;;;;;;;;;;1034444;28;20233;-27
2023/03/15 02:13:54;;;;;;;;;;;;;;;;;;1032909;28;19913;-28
2023/03/15 02:14:24;;;;;;;;;;;;;;;;;;1033654;28;20448;-26
2023/03/15 02:14:54;;;;;;;;;;;;;;;;;;1033634;28;20029;-27
2023/03/15 02:15:24;;;;;;;;;;;;;;;;;;1031654;28;20296;-27
2023/03/15 02:15:55;;;;;;;;;;;;;;;;;;1028779;28;19910;-27
2023/03/15 02:16:25;;;;;;;;;;;;;;;;;;1029615;28;19910;-27
2023/03/15 02:16:55;;;;;;;;;;;;;;;;;;1032414;28;20388;-27
2023/03/15 02:17:26;;;;;;;;;;;;;;;;;;1033921;28;19925;-27
2023/03/15 02:17:56;;;;;;;;;;;;;;;;;;1033552;28;20249;-27
2023/03/15 02:18:26;;;;;;;;;;;;;;;;;;1033742;28;20133;-27
2023/03/15 02:18:56;;;;;;;;;;;;;;;;;;1034499;28;19983;-27
2023/03/15 02:19:27;;;;;;;;;;;;;;;;;;1034226;28;20378;-27
2023/03/15 02:19:57;;;;;;;;;;;;;;;;;;1033040;28;20399;-26
2023/03/15 02:20:27;;;;;;;;;;;;;;;;;;1032869;28;19909;-28
2023/03/15 02:20:59;;;;;;;;;;;;;;;;;;1034408;28;19909;-27
2023/03/15 02:21:29;;;;;;;;;;;;;;;;;;1033748;28;19937;-27
2023/03/15 02:21:59;;;;;;;;;;;;;;;;;;1033343;28;19924;-27
2023/03/15 02:22:29;;;;;;;;;;;;;;;;;;1033077;28;19909;-27
2023/03/15 02:23:00;;;;;;;;;;;;;;;;;;1034546;28;20028;-27
2023/03/15 02:23:30;;;;;;;;;;;;;;;;;;1034613;28;20333;-27
2023/03/15 02:24:01;;;;;;;;;;;;;;;;;;1032781;28;19987;-27
2023/03/15 02:24:31;;;;;;;;;;;;;;;;;;1032543;28;20394;-26
2023/03/15 02:25:01;;;;;;;;;;;;;;;;;;1034096;28;19909;-27
2023/03/15 02:25:33;;;;;;;;;;;;;;;;;;1033009;28;19920;-27
2023/03/15 02:26:03;;;;;;;;;;;;;;;;;;1033868;28;20474;-27
2023/03/15 02:26:33;;;;;;;;;;;;;;;;;;1033011;28;19917;-28
2023/03/15 02:27:04;;;;;;;;;;;;;;;;;;1033302;28;20289;-27
2023/03/15 02:27:35;;;;;;;;;;;;;;;;;;1033047;28;19916;-27
2023/03/15 02:28:05;;;;;;;;;;;;;;;;;;1032963;28;19918;-27
2023/03/15 02:28:35;;;;;;;;;;;;;;;;;;1033200;28;19917;-27
2023/03/15 02:29:06;;;;;;;;;;;;;;;;;;1032124;28;20012;-29
2023/03/15 02:29:36;;;;;;;;;;;;;;;;;;1034052;28;19924;-27
2023/03/15 02:30:06;;;;;;;;;;;;;;;;;;1033893;28;19925;-27
2023/03/15 02:30:36;;;;;;;;;;;;;;;;;;1033417;28;19909;-27
2023/03/15 02:31:07;;;;;;;;;;;;;;;;;;1033413;28;19952;-27
2023/03/15 02:31:38;;;;;;;;;;;;;;;;;;1032945;28;19969;-28
2023/03/15 02:32:08;;;;;;;;;;;;;;;;;;1029453;28;20476;-26
2023/03/15 02:32:39;;;;;;;;;;;;;;;;;;1028675;28;19918;-27
2023/03/15 02:33:09;;;;;;;;;;;;;;;;;;1030642;28;19913;-27
2023/03/15 02:33:40;;;;;;;;;;;;;;;;;;1029623;28;19918;-27
2023/03/15 02:34:11;;;;;;;;;;;;;;;;;;1032592;28;19920;-27
2023/03/15 02:34:41;;;;;;;;;;;;;;;;;;1031190;28;20282;-27
2023/03/15 02:35:11;;;;;;;;;;;;;;;;;;1032846;28;19913;-25
2023/03/15 02:35:42;;;;;;;;;;;;;;;;;;1029751;28;19945;-27
2023/03/15 02:36:15;;;;;;;;;;;;;;;;;;1026122;28;19909;-25
2023/03/15 02:36:47;;;;;;;;;;;;;;;;;;1023274;28;19957;-27
2023/03/15 02:37:18;;;;;;;;;;;;;;;;;;1023402;28;20397;-29
2023/03/15 02:37:49;;;;;;;;;;;;;;;;;;1027023;28;19946;-27
2023/03/15 02:38:21;;;;;;;;;;;;;;;;;;1026956;28;20606;-27
2023/03/15 02:38:51;;;;;;;;;;;;;;;;;;1032088;28;20331;-27
2023/03/15 02:39:22;;;;;;;;;;;;;;;;;;1033225;28;20385;-26
2023/03/15 02:39:53;;;;;;;;;;;;;;;;;;1033075;28;19917;-28
2023/03/15 02:40:24;;;;;;;;;;;;;;;;;;1032875;28;19909;-30
2023/03/15 02:40:54;;;;;;;;;;;;;;;;;;1030366;28;19918;-27
2023/03/15 02:41:24;;;;;;;;;;;;;;;;;;1030775;28;20361;-27
2023/03/15 02:41:55;;;;;;;;;;;;;;;;;;1030488;28;20011;-28
2023/03/15 02:42:27;;;;;;;;;;;;;;;;;;1027431;28;19917;-27
2023/03/15 02:42:57;;;;;;;;;;;;;;;;;;1033008;28;19909;-27
2023/03/15 02:43:28;;;;;;;;;;;;;;;;;;1029047;28;19945;-28
2023/03/15 02:43:58;;;;;;;;;;;;;;;;;;1028864;28;20431;-27
2023/03/15 02:44:29;;;;;;;;;;;;;;;;;;1029949;28;20039;-26
2023/03/15 02:45:01;;;;;;;;;;;;;;;;;;1028805;28;19910;-27
2023/03/15 02:45:32;;;;;;;;;;;;;;;;;;1033734;28;19909;-28
2023/03/15 02:46:02;;;;;;;;;;;;;;;;;;1029410;28;20003;-27
2023/03/15 02:46:32;;;;;;;;;;;;;;;;;;1029682;28;19933;-27
2023/03/15 02:47:03;;;;;;;;;;;;;;;;;;1030361;28;19913;-28
2023/03/15 02:47:33;;;;;;;;;;;;;;;;;;1029143;28;20060;-26
2023/03/15 02:48:04;;;;;;;;;;;;;;;;;;1031337;28;19971;-27
2023/03/15 02:48:34;;;;;;;;;;;;;;;;;;1031692;28;20452;-28
2023/03/15 02:49:08;;;;;;;;;;;;;;;;;;1029944;28;19992;-26
2023/03/15 02:49:39;;;;;;;;;;;;;;;;;;1029739;28;20304;-26
2023/03/15 02:50:11;;;;;;;;;;;;;;;;;;1031034;28;19913;-28
2023/03/15 02:50:43;;;;;;;;;;;;;;;;;;1025405;28;19921;-27
2023/03/15 02:51:14;;;;;;;;;;;;;;;;;;1032106;28;19917;-27
2023/03/15 02:51:47;;;;;;;;;;;;;;;;;;1031843;28;19913;-27
2023/03/15 02:52:18;;;;;;;;;;;;;;;;;;1021655;28;19920;-26
2023/03/15 02:52:48;;;;;;;;;;;;;;;;;;1026046;28;19917;-26
2023/03/15 02:53:19;;;;;;;;;;;;;;;;;;1027388;28;20272;-26
2023/03/15 02:53:49;;;;;;;;;;;;;;;;;;1026830;28;19988;-27
2023/03/15 02:54:20;;;;;;;;;;;;;;;;;;1029907;28;19973;-27
2023/03/15 02:54:54;;;;;;;;;;;;;;;;;;1030535;28;20322;-27
2023/03/15 02:55:26;;;;;;;;;;;;;;;;;;1016037;28;20501;-27
2023/03/15 02:55:56;;;;;;;;;;;;;;;;;;1028112;28;19993;-27
2023/03/15 02:56:27;;;;;;;;;;;;;;;;;;1027287;28;19985;-27
2023/03/15 02:56:58;;;;;;;;;;;;;;;;;;1030199;28;19917;-27
2023/03/15 02:57:29;;;;;;;;;;;;;;;;;;1032034;28;20011;-26
2023/03/15 02:58:01;;;;;;;;;;;;;;;;;;1032016;28;19913;-26
2023/03/15 02:58:33;;;;;;;;;;;;;;;;;;1030118;28;19918;-27
2023/03/15 02:59:04;;;;;;;;;;;;;;;;;;1026303;28;20222;-27
2023/03/15 02:59:36;;;;;;;;;;;;;;;;;;1029539;28;19924;-26
2023/03/15 03:00:17;;;;;;;;;;;;;;;;;;1026585;28;19914;-26
2023/03/15 03:00:48;;;;;;;;;;;;;;;;;;1030716;28;20369;-26
2023/03/15 03:01:21;;;;;;;;;;;;;;;;;;1030739;28;19920;-26
2023/03/15 03:02:03;;;;;;;;;;;;;;;;;;1030294;28;20022;-28
2023/03/15 03:03:13;;;;;;;;;;;;;;;;;;1017849;28;19921;-28
2023/03/15 03:03:45;;;;;;;;;;;;;;;;;;1025394;28;19945;-28
2023/03/15 03:04:18;;;;;;;;;;;;;;;;;;1030885;28;20288;-26
2023/03/15 03:04:55;;;;;;;;;;;;;;;;;;1025638;28;19948;-29
2023/03/15 03:05:26;;;;;;;;;;;;;;;;;;1027476;28;19935;-28
2023/03/15 03:05:57;;;;;;;;;;;;;;;;;;1029438;28;20388;-28
2023/03/15 03:06:30;;;;;;;;;;;;;;;;;;1025837;28;19910;-28
2023/03/15 03:07:04;;;;;;;;;;;;;;;;;;1025613;28;19914;-28
2023/03/15 03:07:37;;;;;;;;;;;;;;;;;;1026662;28;19982;-27
2023/03/15 03:08:09;;;;;;;;;;;;;;;;;;1028395;28;19914;-27
2023/03/15 03:08:45;;;;;;;;;;;;;;;;;;1028977;28;19910;-28
2023/03/15 03:09:19;;;;;;;;;;;;;;;;;;1030464;28;19921;-27
2023/03/15 03:09:53;;;;;;;;;;;;;;;;;;1026518;28;20407;-28
2023/03/15 03:10:35;;;;;;;;;;;;;;;;;;1027483;28;19920;-26
2023/03/15 03:11:39;;;;;;;;;;;;;;;;;;1026811;28;19997;-26
2023/03/15 03:12:40;;;;;;;;;;;;;;;;;;1032659;28;20241;-27
2023/03/15 03:13:33;;;;;;;;;;;;;;;;;;1029935;28;19902;-27
2023/03/15 03:14:30;;;;;;;;;;;;;;;;;;1024894;28;20125;-28
2023/03/15 03:15:29;;;;;;;;;;;;;;;;;;1018872;29;19983;-28
2023/03/15 03:16:13;;;;;;;;;;;;;;;;;;1014393;29;19951;-27
2023/03/15 03:16:47;;;;;;;;;;;;;;;;;;1019545;29;19965;-26
2023/03/15 03:17:42;;;;;;;;;;;;;;;;;;1018656;29;20047;-28
2023/03/15 03:18:20;;;;;;;;;;;;;;;;;;1009012;29;20007;-28
2023/03/15 03:18:53;;;;;;;;;;;;;;;;;;1011862;29;19920;-27
2023/03/15 03:19:24;;;;;;;;;;;;;;;;;;1010779;29;20378;-27
2023/03/15 03:19:57;;;;;;;;;;;;;;;;;;1011125;29;20379;-27
2023/03/15 03:20:33;;;;;;;;;;;;;;;;;;1008804;29;19916;-26
2023/03/15 03:21:10;;;;;;;;;;;;;;;;;;1002999;29;19919;-28
2023/03/15 03:21:47;;;;;;;;;;;;;;;;;;1010373;29;20042;-30
2023/03/15 03:22:25;;;;;;;;;;;;;;;;;;1010996;29;19919;-27
2023/03/15 03:23:04;;;;;;;;;;;;;;;;;;1010265;29;19915;-27
2023/03/15 03:24:11;;;;;;;;;;;;;;;;;;1007705;29;19942;-26
2023/03/15 03:25:05;;;;;;;;;;;;;;;;;;1004043;29;20363;-28
2023/03/15 03:25:37;;;;;;;;;;;;;;;;;;1005158;29;19912;-28
2023/03/15 03:26:08;;;;;;;;;;;;;;;;;;1003518;29;19919;-29
2023/03/15 03:26:41;;;;;;;;;;;;;;;;;;1006693;29;20281;-28
2023/03/15 03:27:13;;;;;;;;;;;;;;;;;;1005063;29;19978;-28
2023/03/15 03:27:45;;;;;;;;;;;;;;;;;;1007860;29;20560;-28
2023/03/15 03:28:21;;;;;;;;;;;;;;;;;;1007968;29;19998;-28
2023/03/15 03:28:55;;;;;;;;;;;;;;;;;;1006992;29;19916;-27
2023/03/15 03:29:25;;;;;;;;;;;;;;;;;;1006144;29;19964;-27
2023/03/15 03:29:57;;;;;;;;;;;;;;;;;;1000744;29;19912;-29
2023/03/15 03:30:27;;;;;;;;;;;;;;;;;;999637;29;19916;-27
2023/03/15 03:30:58;;;;;;;;;;;;;;;;;;1004617;29;19904;-26
2023/03/15 03:31:28;;;;;;;;;;;;;;;;;;1003059;29;19976;-27
2023/03/15 03:31:59;;;;;;;;;;;;;;;;;;1006815;29;20804;-27
2023/03/15 03:32:31;;;;;;;;;;;;;;;;;;1006759;29;20633;-27
2023/03/15 03:33:03;;;;;;;;;;;;;;;;;;1007421;29;19942;-29
2023/03/15 03:33:34;;;;;;;;;;;;;;;;;;1003211;29;19963;-27
2023/03/15 03:34:08;;;;;;;;;;;;;;;;;;1003590;29;20340;-26
2023/03/15 03:34:39;;;;;;;;;;;;;;;;;;999365;29;20278;-27
2023/03/15 03:35:11;;;;;;;;;;;;;;;;;;1002821;29;20048;-27
2023/03/15 03:35:41;;;;;;;;;;;;;;;;;;1000698;29;20035;-26